Time;durP1;ratioP1;P1;durP2;ratioP2;P2;SDS_P1;SDS_P2;PMS_P1;PMS_P2;Temp;Humidity;BMP_temperature;BMP_pressure;BME280_temperature;BME280_humidity;BME280_pressure;Samples;Min_cycle;Max_cycle;Signal;HPM_P1;HPM_P2
2024/04/05 00:01:20;;;;;;;13.38;3.50;;;;;;;12.42;100.00;99599.47;5025898;28;20041;-76
2024/04/05 00:03:49;;;;;;;14.98;3.05;;;;;;;12.45;100.00;99598.81;5043268;28;20052;-77
2024/04/05 00:06:15;;;;;;;12.02;2.85;;;;;;;12.43;100.00;99590.00;5056457;28;20103;-76
2024/04/05 00:08:41;;;;;;;18.38;3.70;;;;;;;12.44;100.00;99569.34;5043300;28;20115;-75
2024/04/05 00:11:06;;;;;;;13.23;2.83;;;;;;;12.41;100.00;99558.88;5043657;28;20528;-76
2024/04/05 00:13:32;;;;;;;13.63;3.53;;;;;;;12.45;100.00;99554.28;5026638;28;20036;-76
2024/04/05 00:16:02;;;;;;;11.38;2.60;;;;;;;12.45;100.00;99545.91;5060247;28;20032;-76
2024/04/05 00:18:33;;;;;;;18.10;3.58;;;;;;;12.45;100.00;99530.06;5043498;28;20040;-76
2024/04/05 00:20:59;;;;;;;12.35;2.88;;;;;;;12.46;100.00;99537.25;5059795;28;20123;-76
2024/04/05 00:23:25;;;;;;;18.15;3.58;;;;;;;12.47;100.00;99515.78;5043141;28;20374;-76
2024/04/05 00:26:06;;;;;;;15.27;3.05;;;;;;;12.48;100.00;99509.91;5043293;28;20408;-76
2024/04/05 00:28:33;;;;;;;12.90;3.10;;;;;;;12.46;100.00;99508.59;5032823;28;20075;-76
2024/04/05 00:30:59;;;;;;;15.18;3.15;;;;;;;12.48;100.00;99503.47;5027206;28;20382;-76
2024/04/05 00:33:24;;;;;;;14.73;3.13;;;;;;;12.46;100.00;99501.03;5043109;28;20036;-75
2024/04/05 00:35:54;;;;;;;13.52;3.33;;;;;;;12.51;100.00;99491.72;5025708;28;20033;-75
2024/04/05 00:38:20;;;;;;;16.10;3.83;;;;;;;12.49;100.00;99492.03;5060008;28;20041;-76
2024/04/05 00:40:45;;;;;;;14.38;2.97;;;;;;;12.48;100.00;99495.97;5042936;28;20120;-76
2024/04/05 00:43:12;;;;;;;15.32;2.88;;;;;;;12.50;100.00;99476.13;5044603;28;20246;-76
2024/04/05 00:45:41;;;;;;;13.68;2.83;;;;;;;12.52;100.00;99471.06;5057304;28;20036;-76
2024/04/05 00:48:07;;;;;;;13.98;3.10;;;;;;;12.54;100.00;99468.75;5062176;28;20115;-76
2024/04/05 00:50:33;;;;;;;16.10;3.30;;;;;;;12.55;100.00;99464.81;5029231;28;20052;-75
2024/04/05 00:52:58;;;;;;;15.35;3.78;;;;;;;12.56;100.00;99460.88;5025835;28;20044;-75
2024/04/05 00:55:24;;;;;;;12.20;2.80;;;;;;;12.56;100.00;99474.78;5039013;28;20507;-76
2024/04/05 00:57:50;;;;;;;15.65;3.13;;;;;;;12.56;100.00;99455.28;5057735;28;20051;-75
2024/04/05 01:00:16;;;;;;;10.25;2.63;;;;;;;12.59;100.00;99449.09;5059024;28;20045;-75
2024/04/05 01:02:42;;;;;;;12.27;3.15;;;;;;;12.62;100.00;99453.16;5059016;28;20497;-75
2024/04/05 01:05:08;;;;;;;13.68;2.58;;;;;;;12.62;100.00;99462.34;5026049;28;20045;-76
2024/04/05 01:07:33;;;;;;;9.90;2.72;;;;;;;12.61;100.00;99435.63;5042953;28;20037;-76
2024/04/05 01:09:59;;;;;;;11.25;2.53;;;;;;;12.64;100.00;99434.13;5025897;28;20401;-76
2024/04/05 01:12:24;;;;;;;10.90;2.63;;;;;;;12.66;100.00;99432.66;5042386;28;20040;-76
2024/04/05 01:14:50;;;;;;;11.00;2.75;;;;;;;12.68;100.00;99430.38;5026129;28;20396;-76
2024/04/05 01:17:15;;;;;;;13.20;2.67;;;;;;;12.69;100.00;99434.78;5009168;28;20094;-76
2024/04/05 01:19:40;;;;;;;14.63;3.78;;;;;;;12.71;100.00;99429.69;5041764;28;20370;-75
2024/04/05 01:22:11;;;;;;;10.57;3.20;;;;;;;12.72;100.00;99424.94;5042471;28;20048;-76
2024/04/05 01:24:37;;;;;;;12.77;3.00;;;;;;;12.73;100.00;99407.91;5025491;28;20095;-76
2024/04/05 01:27:04;;;;;;;9.77;2.30;;;;;;;12.75;100.00;99413.91;5042178;28;20087;-76
2024/04/05 01:29:29;;;;;;;12.93;2.75;;;;;;;12.76;100.00;99395.25;5076237;28;20043;-75
2024/04/05 01:31:54;;;;;;;12.98;2.92;;;;;;;12.78;100.00;99389.34;5025716;28;20037;-76
2024/04/05 01:34:20;;;;;;;9.10;2.38;;;;;;;12.79;100.00;99394.59;5058248;28;20037;-76
2024/04/05 01:36:45;;;;;;;9.30;2.33;;;;;;;12.79;100.00;99390.97;5009251;28;20063;-76
2024/04/05 01:39:11;;;;;;;11.02;2.58;;;;;;;12.80;100.00;99384.25;5058444;28;20412;-76
2024/04/05 01:41:36;;;;;;;12.43;2.58;;;;;;;12.82;100.00;99376.38;5041862;28;20489;-76
2024/04/05 01:44:03;;;;;;;11.10;2.53;;;;;;;12.83;100.00;99386.38;5057571;28;20044;-76
2024/04/05 01:46:29;;;;;;;9.73;2.25;;;;;;;12.83;100.00;99386.38;5050720;28;20036;-76
2024/04/05 01:48:54;;;;;;;8.23;1.90;;;;;;;12.83;100.00;99389.16;5092729;28;20032;-76
2024/04/05 01:51:20;;;;;;;11.07;2.60;;;;;;;12.83;100.00;99386.38;5058342;28;20040;-76
2024/04/05 01:53:45;;;;;;;6.18;2.40;;;;;;;12.84;100.00;99397.19;5057106;28;20045;-76
2024/04/05 01:56:11;;;;;;;9.18;2.53;;;;;;;12.86;100.00;99391.25;5041528;28;20039;-76
2024/04/05 01:58:37;;;;;;;12.60;2.58;;;;;;;12.85;100.00;99382.09;5024106;28;20036;-76
2024/04/05 02:01:03;;;;;;;7.15;2.38;;;;;;;12.87;100.00;99376.16;5041463;28;20037;-76
2024/04/05 02:03:29;;;;;;;13.40;2.55;;;;;;;12.90;100.00;99392.25;5040674;28;20493;-76
2024/04/05 02:05:54;;;;;;;9.00;2.13;;;;;;;12.89;100.00;99379.44;5025263;28;20070;-76
2024/04/05 02:08:20;;;;;;;7.47;2.60;;;;;;;12.89;100.00;99393.38;5024772;28;20067;-76
2024/04/05 02:10:46;;;;;;;7.28;2.15;;;;;;;12.92;100.00;99375.97;5041695;28;20032;-75
2024/04/05 02:13:12;;;;;;;4.72;2.00;;;;;;;12.91;100.00;99369.59;5023332;28;20041;-76
2024/04/05 02:15:38;;;;;;;8.80;2.17;;;;;;;12.94;100.00;99368.09;5026168;28;20704;-76
2024/04/05 02:18:08;;;;;;;10.43;2.38;;;;;;;12.92;100.00;99378.75;5036662;28;20077;-76
2024/04/05 02:20:34;;;;;;;7.28;1.90;;;;;;;12.94;100.00;99370.88;5038044;28;20033;-76
2024/04/05 02:23:00;;;;;;;7.05;2.10;;;;;;;12.95;100.00;99372.50;5053122;28;20393;-75
2024/04/05 02:25:25;;;;;;;9.57;2.40;;;;;;;12.93;100.00;99355.34;5041194;28;20040;-76
2024/04/05 02:27:51;;;;;;;8.48;2.30;;;;;;;12.95;100.00;99358.56;5056905;28;20498;-75
2024/04/05 02:30:17;;;;;;;5.65;1.98;;;;;;;12.96;100.00;99368.59;5041359;28;20033;-76
2024/04/05 02:32:43;;;;;;;8.55;2.15;;;;;;;12.98;100.00;99377.41;5056372;28;20040;-76
2024/04/05 02:35:08;;;;;;;8.80;1.92;;;;;;;12.97;100.00;99370.22;5056679;28;20443;-76
2024/04/05 02:37:33;;;;;;;8.32;2.28;;;;;;;12.92;100.00;99373.19;5055665;28;20044;-76
2024/04/05 02:39:59;;;;;;;5.30;2.05;;;;;;;12.95;100.00;99353.84;5024719;28;20047;-76
2024/04/05 02:42:24;;;;;;;9.70;2.22;;;;;;;12.97;100.00;99353.50;5040135;28;20060;-76
2024/04/05 02:44:50;;;;;;;5.80;2.35;;;;;;;12.98;100.00;99349.53;5075679;28;20039;-76
2024/04/05 02:47:16;;;;;;;6.55;1.77;;;;;;;12.97;100.00;99340.38;5040576;28;20033;-76
2024/04/05 02:49:41;;;;;;;11.13;2.00;;;;;;;12.96;100.00;99337.94;5009410;28;20033;-76
2024/04/05 02:52:07;;;;;;;9.68;2.30;;;;;;;12.95;100.00;99347.44;5075313;28;20048;-75
2024/04/05 02:54:32;;;;;;;11.02;2.13;;;;;;;12.94;100.00;99338.25;5024901;28;20032;-75
2024/04/05 02:56:58;;;;;;;5.90;2.25;;;;;;;12.94;100.00;99331.88;5036009;28;20047;-75
2024/04/05 02:59:23;;;;;;;9.65;2.40;;;;;;;12.94;100.00;99334.66;5043031;28;20123;-76
2024/04/05 03:01:49;;;;;;;5.93;2.08;;;;;;;12.92;100.00;99350.91;5044234;28;20561;-76
2024/04/05 03:04:15;;;;;;;7.32;2.45;;;;;;;12.89;100.00;99346.00;5008763;28;20075;-75
2024/04/05 03:06:40;;;;;;;8.45;2.42;;;;;;;12.89;100.00;99363.53;5055870;28;20068;-75
2024/04/05 03:09:06;;;;;;;9.50;2.78;;;;;;;12.88;100.00;99361.91;5079237;28;20047;-75
2024/04/05 03:11:31;;;;;;;7.82;2.72;;;;;;;12.90;100.00;99381.91;5027372;28;20032;-76
2024/04/05 03:13:57;;;;;;;9.45;3.03;;;;;;;12.87;100.00;99377.00;5044508;28;20078;-76
2024/04/05 03:16:22;;;;;;;9.95;3.40;;;;;;;12.84;100.00;99385.19;5061100;28;20048;-75
2024/04/05 03:18:47;;;;;;;9.20;2.88;;;;;;;12.84;100.00;99396.34;5028426;28;20279;-76
2024/04/05 03:21:13;;;;;;;5.85;2.53;;;;;;;12.83;100.00;99397.50;5060656;28;20059;-75
2024/04/05 03:23:38;;;;;;;8.25;2.50;;;;;;;12.83;100.00;99397.50;5028303;28;20037;-76
2024/04/05 03:26:04;;;;;;;5.35;2.10;;;;;;;12.82;100.00;99395.88;5061072;28;20040;-76
2024/04/05 03:28:29;;;;;;;6.47;2.60;;;;;;;12.81;100.00;99395.03;5061010;28;20033;-76
2024/04/05 03:30:55;;;;;;;7.15;2.78;;;;;;;12.82;100.00;99409.81;5043309;28;20090;-76
2024/04/05 03:33:20;;;;;;;10.38;2.20;;;;;;;12.80;100.00;99410.13;5060989;28;20487;-75
2024/04/05 03:35:46;;;;;;;7.80;2.13;;;;;;;12.81;100.00;99400.63;5078481;28;20040;-76
2024/04/05 03:38:11;;;;;;;6.80;2.25;;;;;;;12.83;100.00;99392.75;5044575;28;20385;-75
2024/04/05 03:40:38;;;;;;;7.28;2.30;;;;;;;12.82;100.00;99407.03;5011111;28;20037;-76
2024/04/05 03:43:04;;;;;;;5.70;2.17;;;;;;;12.82;100.00;99416.19;5044065;28;20032;-76
2024/04/05 03:45:30;;;;;;;7.20;2.25;;;;;;;12.81;100.00;99408.16;5027036;28;20562;-76
2024/04/05 03:47:56;;;;;;;5.60;1.90;;;;;;;12.79;100.00;99427.19;5062744;28;20118;-76
2024/04/05 03:50:21;;;;;;;9.07;2.47;;;;;;;12.81;100.00;99419.31;5060885;28;20040;-76
2024/04/05 03:52:47;;;;;;;6.18;2.03;;;;;;;12.81;100.00;99427.66;5010961;28;20174;-75
2024/04/05 03:55:12;;;;;;;7.28;2.08;;;;;;;12.83;100.00;99439.31;5026873;28;20041;-76
2024/04/05 03:57:42;;;;;;;6.15;2.13;;;;;;;12.81;100.00;99444.38;5043513;28;20554;-76
2024/04/05 04:00:08;;;;;;;8.80;2.28;;;;;;;12.82;100.00;99434.91;5044850;28;20119;-76
2024/04/05 04:02:33;;;;;;;9.30;2.80;;;;;;;12.80;100.00;99431.63;5027147;28;20056;-76
2024/04/05 04:04:59;;;;;;;6.68;2.00;;;;;;;12.80;100.00;99428.84;5043397;28;20131;-76
2024/04/05 04:07:24;;;;;;;5.15;1.83;;;;;;;12.81;100.00;99430.47;5026142;28;20037;-75
2024/04/05 04:09:50;;;;;;;6.65;2.03;;;;;;;12.78;100.00;99420.00;5023252;28;20040;-76
2024/04/05 04:12:15;;;;;;;7.07;1.98;;;;;;;12.77;100.00;99421.97;5043519;28;20059;-76
2024/04/05 04:14:41;;;;;;;10.73;2.20;;;;;;;12.75;100.00;99427.84;5025270;28;20040;-76
2024/04/05 04:17:07;;;;;;;8.35;2.28;;;;;;;12.77;100.00;99429.50;5042868;28;20036;-75
2024/04/05 04:19:32;;;;;;;11.07;2.13;;;;;;;12.73;100.00;99404.25;5057880;28;20079;-76
2024/04/05 04:21:58;;;;;;;7.00;2.47;;;;;;;12.74;100.00;99401.16;5077332;28;20049;-76
2024/04/05 04:24:24;;;;;;;8.82;2.30;;;;;;;12.75;100.00;99407.53;5042088;28;20528;-76
2024/04/05 04:26:50;;;;;;;9.93;2.60;;;;;;;12.73;100.00;99413.47;5039421;28;20119;-76
2024/04/05 04:29:16;;;;;;;10.13;2.50;;;;;;;12.71;100.00;99401.84;5042198;28;20119;-76
2024/04/05 04:31:42;;;;;;;6.95;2.17;;;;;;;12.71;100.00;99424.13;5043407;28;20043;-76
2024/04/05 04:34:08;;;;;;;12.75;4.85;;;;;;;12.69;100.00;99428.38;5042399;28;20378;-76
2024/04/05 04:36:33;;;;;;;12.23;6.60;;;;;;;12.67;100.00;99430.69;5043121;28;20036;-76
2024/04/05 04:38:59;;;;;;;9.38;4.93;;;;;;;12.66;100.00;99429.06;5020371;28;20086;-76
2024/04/05 04:41:24;;;;;;;12.65;4.93;;;;;;;12.66;100.00;99432.66;5077345;28;20032;-76
2024/04/05 04:43:52;;;;;;;11.38;5.05;;;;;;;12.66;100.00;99421.50;5059473;28;20048;-76
2024/04/05 04:46:18;;;;;;;11.70;5.30;;;;;;;12.65;100.00;99421.88;5039749;28;20417;-76
2024/04/05 04:48:44;;;;;;;20.10;4.35;;;;;;;12.64;100.00;99432.16;5054737;28;20043;-76
2024/04/05 04:51:10;;;;;;;7.82;4.55;;;;;;;12.65;100.00;99431.03;5042932;28;20043;-76
2024/04/05 04:53:36;;;;;;;12.15;4.13;;;;;;;12.65;100.00;99433.00;5041769;28;20032;-76
2024/04/05 04:56:01;;;;;;;9.93;3.47;;;;;;;12.64;100.00;99445.28;5042809;28;20107;-76
2024/04/05 04:58:29;;;;;;;11.80;4.22;;;;;;;12.59;100.00;99445.47;5041907;28;20040;-76
2024/04/05 05:00:55;;;;;;;6.80;3.55;;;;;;;12.60;100.00;99449.91;5077087;28;20036;-76
2024/04/05 05:03:21;;;;;;;13.20;3.03;;;;;;;12.62;100.00;99442.84;5026436;28;20048;-76
2024/04/05 05:05:46;;;;;;;12.95;3.58;;;;;;;12.61;100.00;99446.75;5025764;28;20040;-76
2024/04/05 05:08:12;;;;;;;12.65;3.25;;;;;;;12.62;100.00;99453.16;5022964;28;20043;-76
2024/04/05 05:10:42;;;;;;;13.60;3.47;;;;;;;12.61;100.00;99471.03;5026263;28;20037;-76
2024/04/05 05:13:09;;;;;;;13.65;4.00;;;;;;;12.59;100.00;99468.59;5026554;28;20484;-76
2024/04/05 05:15:35;;;;;;;10.75;2.97;;;;;;;12.61;100.00;99473.81;5042061;28;20032;-76
2024/04/05 05:18:00;;;;;;;8.70;2.55;;;;;;;12.60;100.00;99478.56;5026452;28;20112;-76
2024/04/05 05:20:28;;;;;;;10.32;3.05;;;;;;;12.62;100.00;99481.00;5042391;28;20029;-76
2024/04/05 05:22:54;;;;;;;12.38;3.05;;;;;;;12.63;100.00;99482.66;5043398;28;20095;-76
2024/04/05 05:25:19;;;;;;;8.82;2.40;;;;;;;12.62;100.00;99486.56;5070473;28;20070;-76
2024/04/05 05:27:46;;;;;;;6.28;2.38;;;;;;;12.65;100.00;99475.59;5041598;28;20040;-76
2024/04/05 05:30:11;;;;;;;8.55;2.63;;;;;;;12.63;100.00;99480.69;5076565;28;20089;-77
2024/04/05 05:32:37;;;;;;;9.10;2.30;;;;;;;12.62;100.00;99481.84;5025059;28;20396;-76
2024/04/05 05:35:04;;;;;;;7.25;3.38;;;;;;;12.65;100.00;99481.16;5038820;28;20067;-76
2024/04/05 05:37:30;;;;;;;5.45;2.05;;;;;;;12.64;100.00;99478.72;5025217;28;20036;-76
2024/04/05 05:40:00;;;;;;;6.70;2.78;;;;;;;12.64;100.00;99485.09;5058486;28;20043;-76
2024/04/05 05:42:29;;;;;;;7.90;2.58;;;;;;;12.63;100.00;99472.31;5042174;28;20115;-76
2024/04/05 05:44:54;;;;;;;9.25;2.88;;;;;;;12.63;100.00;99463.16;5041869;28;20567;-76
2024/04/05 05:47:20;;;;;;;7.93;2.60;;;;;;;12.64;100.00;99471.16;5071067;28;20067;-76
2024/04/05 05:49:48;;;;;;;5.25;2.25;;;;;;;12.62;100.00;99483.78;5075711;28;20037;-76
2024/04/05 05:52:14;;;;;;;11.07;3.10;;;;;;;12.61;100.00;99485.75;5029229;28;20040;-76
2024/04/05 05:54:39;;;;;;;6.80;2.30;;;;;;;12.61;100.00;99505.25;5025614;28;20473;-76
2024/04/05 05:57:05;;;;;;;7.18;2.53;;;;;;;12.62;100.00;99500.50;5041165;28;20041;-76
2024/04/05 05:59:30;;;;;;;10.43;3.58;;;;;;;12.64;100.00;99509.34;5058048;28;20029;-76
2024/04/05 06:01:56;;;;;;;6.40;2.80;;;;;;;12.63;100.00;99505.75;5057876;28;20135;-76
2024/04/05 06:04:22;;;;;;;8.90;2.97;;;;;;;12.63;100.00;99500.19;5041443;28;20047;-76
2024/04/05 06:06:47;;;;;;;7.93;2.65;;;;;;;12.64;100.00;99514.91;5025508;28;20656;-76
2024/04/05 06:09:16;;;;;;;6.32;2.20;;;;;;;12.62;100.00;99515.25;5017728;28;20037;-76
2024/04/05 06:11:42;;;;;;;5.63;2.22;;;;;;;12.63;100.00;99499.38;5022648;28;20033;-76
2024/04/05 06:14:08;;;;;;;6.20;2.45;;;;;;;12.63;100.00;99500.19;5024814;28;20033;-77
2024/04/05 06:16:33;;;;;;;9.82;2.55;;;;;;;12.60;100.00;99509.19;5025835;28;20556;-76
2024/04/05 06:18:59;;;;;;;8.25;2.53;;;;;;;12.60;100.00;99503.63;5041803;28;20066;-75
2024/04/05 06:21:24;;;;;;;7.85;2.38;;;;;;;12.62;100.00;99512.47;5024352;28;20508;-75
2024/04/05 06:23:50;;;;;;;6.88;2.20;;;;;;;12.64;100.00;99518.50;5024941;28;20033;-75
2024/04/05 06:26:15;;;;;;;8.07;2.45;;;;;;;12.63;100.00;99514.09;5023396;28;20469;-78
2024/04/05 06:28:41;;;;;;;6.70;2.17;;;;;;;12.64;100.00;99517.69;5024714;28;20051;-75
2024/04/05 06:31:06;;;;;;;8.48;2.20;;;;;;;12.64;100.00;99512.13;5057765;28;20094;-75
2024/04/05 06:33:32;;;;;;;5.47;2.00;;;;;;;12.65;100.00;99525.75;5042114;28;20381;-75
2024/04/05 06:36:00;;;;;;;9.50;2.22;;;;;;;12.66;100.00;99521.78;5079906;28;20033;-75
2024/04/05 06:38:26;;;;;;;5.00;1.80;;;;;;;12.65;100.00;99528.53;5062185;28;20041;-75
2024/04/05 06:40:56;;;;;;;6.95;1.98;;;;;;;12.64;100.00;99535.22;5060018;28;20446;-75
2024/04/05 06:43:21;;;;;;;6.68;2.08;;;;;;;12.66;100.00;99544.06;5027537;28;20039;-75
2024/04/05 06:46:03;;;;;;;7.13;2.15;;;;;;;12.67;100.00;99534.56;5048012;28;20036;-75
2024/04/05 06:48:32;;;;;;;8.27;2.20;;;;;;;12.68;100.00;99540.97;5032222;28;20044;-75
2024/04/05 06:50:58;;;;;;;6.70;2.20;;;;;;;12.69;100.00;99543.41;5045479;28;20058;-75
2024/04/05 06:53:29;;;;;;;6.22;2.15;;;;;;;12.69;100.00;99543.41;5028593;28;20043;-75
2024/04/05 06:55:55;;;;;;;6.10;1.80;;;;;;;12.70;100.00;99544.22;5030471;28;20067;-75
2024/04/05 06:58:21;;;;;;;6.07;1.95;;;;;;;12.69;100.00;99546.19;5028560;28;20033;-75
2024/04/05 07:00:47;;;;;;;6.30;2.28;;;;;;;12.71;100.00;99546.69;5045100;28;20042;-75
2024/04/05 07:03:13;;;;;;;8.50;2.00;;;;;;;12.70;100.00;99541.44;5023622;28;20048;-75
2024/04/05 07:05:39;;;;;;;7.47;1.98;;;;;;;12.70;100.00;99556.22;5044651;28;20037;-75
2024/04/05 07:08:05;;;;;;;8.80;2.47;;;;;;;12.71;100.00;99545.88;5017665;28;20039;-75
2024/04/05 07:10:31;;;;;;;5.65;2.20;;;;;;;12.73;100.00;99544.41;5061744;28;20028;-75
2024/04/05 07:12:57;;;;;;;6.47;2.13;;;;;;;12.72;100.00;99541.94;5028048;28;20381;-75
2024/04/05 07:15:23;;;;;;;6.32;2.33;;;;;;;12.74;100.00;99546.03;5028211;28;20114;-75
2024/04/05 07:17:52;;;;;;;9.30;2.08;;;;;;;12.77;100.00;99560.44;5061242;28;20664;-74
2024/04/05 07:20:24;;;;;;;7.82;2.00;;;;;;;12.75;100.00;99546.84;5094040;28;20680;-75
2024/04/05 07:22:52;;;;;;;5.53;1.90;;;;;;;12.75;100.00;99550.44;5044761;28;20039;-75
2024/04/05 07:25:17;;;;;;;7.63;1.80;;;;;;;12.79;100.00;99558.13;5044286;28;20033;-75
2024/04/05 07:27:43;;;;;;;6.47;2.08;;;;;;;12.78;100.00;99576.81;5027639;28;20032;-75
2024/04/05 07:30:09;;;;;;;6.80;1.67;;;;;;;12.81;100.00;99575.34;5044474;28;20063;-75
2024/04/05 07:32:35;;;;;;;5.75;1.90;;;;;;;12.80;100.00;99576.50;5043060;28;20068;-75
2024/04/05 07:35:01;;;;;;;8.80;1.90;;;;;;;12.81;100.00;99584.50;5025534;28;20040;-74
2024/04/05 07:37:26;;;;;;;4.60;1.70;;;;;;;12.82;100.00;99594.53;5050431;28;20045;-75
2024/04/05 07:39:54;;;;;;;7.03;1.50;;;;;;;12.84;100.00;99594.19;5060865;28;20571;-75
2024/04/05 07:42:19;;;;;;;4.43;1.88;;;;;;;12.84;100.00;99595.03;5014981;28;20037;-75
2024/04/05 07:44:46;;;;;;;5.05;1.75;;;;;;;12.85;100.00;99601.41;5044331;28;20028;-74
2024/04/05 07:47:12;;;;;;;6.00;2.00;;;;;;;12.85;100.00;99601.41;5064502;28;20133;-75
2024/04/05 07:49:37;;;;;;;5.70;1.50;;;;;;;12.88;100.00;99609.91;5066132;28;20033;-75
2024/04/05 07:52:03;;;;;;;4.20;1.55;;;;;;;12.89;100.00;99619.91;5010577;28;20558;-75
2024/04/05 07:54:29;;;;;;;7.35;1.90;;;;;;;12.89;100.00;99622.69;5022836;28;20033;-75
2024/04/05 07:56:54;;;;;;;6.85;1.88;;;;;;;12.91;100.00;99630.72;5043091;28;20033;-75
2024/04/05 07:59:20;;;;;;;6.32;1.77;;;;;;;12.90;100.00;99627.13;5060348;28;20032;-75
2024/04/05 08:01:46;;;;;;;6.72;1.83;;;;;;;12.94;100.00;99625.31;5034881;28;20099;-75
2024/04/05 08:04:11;;;;;;;8.30;1.95;;;;;;;12.95;100.00;99642.84;5008215;28;20060;-75
2024/04/05 08:06:37;;;;;;;9.52;1.60;;;;;;;12.99;100.00;99640.22;5026890;28;20044;-75
2024/04/05 08:09:02;;;;;;;4.07;1.58;;;;;;;13.00;100.00;99637.09;5011038;28;20040;-74
2024/04/05 08:11:28;;;;;;;4.95;1.38;;;;;;;13.02;100.00;99640.38;5042990;28;20063;-74
2024/04/05 08:13:53;;;;;;;5.00;1.60;;;;;;;13.05;100.00;99650.84;5043501;28;20485;-75
2024/04/05 08:16:19;;;;;;;6.18;1.80;;;;;;;13.07;100.00;99665.28;5026895;28;20032;-74
2024/04/05 08:18:44;;;;;;;5.15;1.55;;;;;;;13.12;100.00;99667.91;5043541;28;20416;-74
2024/04/05 08:21:09;;;;;;;5.88;1.60;;;;;;;13.15;100.00;99670.03;5059263;28;20085;-74
2024/04/05 08:23:35;;;;;;;4.13;1.23;;;;;;;13.17;100.00;99670.50;5010976;28;20044;-75
2024/04/05 08:26:01;;;;;;;6.97;1.75;;;;;;;13.26;100.00;99676.09;5021267;28;20044;-74
2024/04/05 08:28:27;;;;;;;6.03;1.77;;;;;;;13.34;100.00;99675.22;5026800;28;20040;-74
2024/04/05 08:30:52;;;;;;;4.95;1.55;;;;;;;13.41;100.00;99681.13;5048490;28;20056;-74
2024/04/05 08:33:18;;;;;;;5.15;1.40;;;;;;;13.49;100.00;99675.88;5077977;28;20574;-75
2024/04/05 08:35:52;;;;;;;6.78;1.83;;;;;;;13.58;100.00;99685.00;5029184;28;20025;-74
2024/04/05 08:38:18;;;;;;;3.90;1.20;;;;;;;13.66;100.00;99683.34;5026325;28;20056;-75
2024/04/05 08:40:44;;;;;;;7.97;1.50;;;;;;;13.75;100.00;99684.13;5043090;28;20031;-74
2024/04/05 08:43:09;;;;;;;5.00;1.83;;;;;;;13.85;100.00;99697.72;5023653;28;20041;-74
2024/04/05 08:45:35;;;;;;;6.22;1.80;;;;;;;13.94;100.00;99698.47;5053116;28;20067;-74
2024/04/05 08:48:04;;;;;;;8.07;1.45;;;;;;;14.02;100.00;99692.03;5062153;28;20169;-75
2024/04/05 08:50:30;;;;;;;6.82;1.90;;;;;;;14.08;100.00;99704.63;5029336;28;20123;-74
2024/04/05 08:52:56;;;;;;;7.43;1.42;;;;;;;14.16;100.00;99713.31;5042877;28;20500;-74
2024/04/05 08:55:22;;;;;;;5.28;1.30;;;;;;;14.23;100.00;99710.78;5042609;28;20032;-75
2024/04/05 08:57:48;;;;;;;7.38;1.50;;;;;;;14.27;100.00;99722.94;5038626;28;20091;-75
2024/04/05 09:00:17;;;;;;;9.88;1.70;;;;;;;14.34;100.00;99711.22;5072307;28;20036;-75
2024/04/05 09:02:42;;;;;;;8.27;1.45;;;;;;;14.39;100.00;99724.97;5025966;28;20048;-75
2024/04/05 09:05:09;;;;;;;10.40;2.05;;;;;;;14.44;100.00;99724.78;5042024;28;20385;-75
2024/04/05 09:07:35;;;;;;;7.00;1.77;;;;;;;14.47;100.00;99722.13;5026293;28;20127;-75
2024/04/05 09:10:19;;;;;;;7.55;1.20;;;;;;;14.56;100.00;99735.25;5077435;28;20067;-75
2024/04/05 09:12:51;;;;;;;6.82;1.63;;;;;;;14.64;100.00;99737.16;5060171;28;20127;-75
2024/04/05 09:15:24;;;;;;;7.30;1.23;;;;;;;14.70;100.00;99728.22;5062458;28;20035;-75
2024/04/05 09:17:49;;;;;;;10.63;1.60;;;;;;;14.82;100.00;99732.25;5049458;28;20127;-75
2024/04/05 09:20:24;;;;;;;5.07;1.10;;;;;;;14.91;100.00;99733.00;5025706;28;20086;-75
2024/04/05 09:22:57;;;;;;;12.73;1.80;;;;;;;15.06;100.00;99734.34;5042258;28;20040;-75
2024/04/05 09:25:22;;;;;;;;;;;;;;;15.17;100.00;99736.38;5027179;28;20033;-75
2024/04/05 09:27:48;;;;;;;6.05;1.58;;;;;;;15.30;100.00;99728.03;5036529;28;19916;-75
2024/04/05 09:30:14;;;;;;;7.22;1.30;;;;;;;15.41;100.00;99727.25;5025828;28;20598;-75
2024/04/05 09:32:40;;;;;;;9.02;1.50;;;;;;;15.53;100.00;99720.06;5041861;28;20477;-75
2024/04/05 09:35:11;;;;;;;5.38;1.40;;;;;;;15.64;100.00;99712.84;5022612;28;20059;-75
2024/04/05 09:37:38;;;;;;;6.93;1.40;;;;;;;15.75;100.00;99707.66;5056318;28;20068;-75
2024/04/05 09:40:10;;;;;;;5.43;1.63;;;;;;;15.89;100.00;99715.72;5042363;28;20107;-75
2024/04/05 09:42:36;;;;;;;4.85;1.33;;;;;;;16.00;100.00;99708.47;5043535;28;20086;-75
2024/04/05 09:45:02;;;;;;;6.38;1.52;;;;;;;16.12;100.00;99710.44;5025386;28;20051;-75
2024/04/05 09:47:29;;;;;;;7.70;1.52;;;;;;;16.25;100.00;99714.88;5025401;28;20071;-75
2024/04/05 09:49:54;;;;;;;7.22;1.50;;;;;;;16.36;100.00;99726.44;5025729;28;20106;-75
2024/04/05 09:52:26;;;;;;;8.30;1.77;;;;;;;16.50;100.00;99732.47;5041876;28;20040;-74
2024/04/05 09:54:56;;;;;;;8.10;1.83;;;;;;;16.63;100.00;99734.09;5042780;28;20032;-75
2024/04/05 09:57:21;;;;;;;9.02;1.67;;;;;;;16.78;100.00;99731.75;5057710;28;20033;-74
2024/04/05 09:59:48;;;;;;;6.63;1.33;;;;;;;16.91;100.00;99730.53;5041997;28;20063;-75
2024/04/05 10:02:17;;;;;;;9.80;1.55;;;;;;;17.05;100.00;99730.97;5041690;28;20056;-75
2024/04/05 10:04:43;;;;;;;5.40;1.17;;;;;;;17.19;100.00;99736.19;5036568;28;20062;-75
2024/04/05 10:07:10;;;;;;;15.02;1.73;;;;;;;17.32;100.00;99736.91;5058056;28;20036;-75
2024/04/05 10:09:36;;;;;;;5.57;1.77;;;;;;;17.42;100.00;99742.81;5056878;28;20093;-75
2024/04/05 10:12:16;;;;;;;10.68;1.70;;;;;;;17.56;100.00;99748.03;5057980;28;20036;-75
2024/04/05 10:14:55;;;;;;;7.78;1.55;;;;;;;17.67;100.00;99748.31;5025643;28;20483;-74
2024/04/05 10:17:26;;;;;;;8.80;1.50;;;;;;;17.79;100.00;99744.63;5041863;28;20037;-75
2024/04/05 10:20:07;;;;;;;7.53;1.63;;;;;;;17.87;100.00;99743.63;5034795;28;20116;-75
2024/04/05 10:22:35;;;;;;;10.20;2.25;;;;;;;17.97;100.00;99737.50;5038139;28;20064;-75
2024/04/05 10:25:02;;;;;;;5.68;1.55;;;;;;;18.06;100.00;99740.91;5026003;28;20159;-75
2024/04/05 10:27:27;;;;;;;11.60;1.80;;;;;;;18.17;100.00;99749.63;5024763;28;20155;-75
2024/04/05 10:30:03;;;;;;;8.55;1.73;;;;;;;18.29;100.00;99751.50;5057872;28;20074;-75
2024/04/05 10:32:29;;;;;;;9.10;1.70;;;;;;;18.42;100.00;99744.59;5024966;28;20504;-75
2024/04/05 10:35:11;;;;;;;12.85;2.00;;;;;;;18.56;100.00;99735.69;5027483;28;20428;-75
2024/04/05 10:37:38;;;;;;;6.38;1.85;;;;;;;18.66;100.00;99746.34;5038875;28;20484;-74
2024/04/05 10:40:13;;;;;;;9.93;1.67;;;;;;;18.75;100.00;99732.94;5008552;28;20104;-75
2024/04/05 10:42:39;;;;;;;10.85;1.55;;;;;;;18.84;100.00;99724.28;5043311;28;20075;-75
2024/04/05 10:45:05;;;;;;;12.85;2.15;;;;;;;18.94;100.00;99723.72;5041216;28;20037;-75
2024/04/05 10:47:35;;;;;;;7.07;1.38;;;;;;;19.02;100.00;99724.66;5073906;28;20131;-74
2024/04/05 10:50:02;;;;;;;12.90;1.55;;;;;;;19.09;100.00;99710.75;5023456;28;20547;-74
2024/04/05 10:52:30;;;;;;;9.32;2.10;;;;;;;19.18;100.00;99711.31;5041406;28;20048;-74
2024/04/05 10:54:56;;;;;;;8.35;2.08;;;;;;;19.25;100.00;99716.28;5009131;28;20100;-75
2024/04/05 10:57:21;;;;;;;11.77;2.10;;;;;;;19.29;100.00;99707.91;5073622;28;20520;-75
2024/04/05 10:59:47;;;;;;;10.35;1.77;;;;;;;19.34;100.00;99714.06;5057759;28;20106;-74
2024/04/05 11:02:13;;;;;;;14.82;2.22;;;;;;;19.39;100.00;99712.94;5040250;28;20044;-75
2024/04/05 11:04:39;;;;;;;9.75;1.73;;;;;;;19.40;100.00;99715.38;5041543;28;20063;-74
2024/04/05 11:07:04;;;;;;;9.02;1.75;;;;;;;19.40;100.00;99706.91;5019663;28;20037;-74
2024/04/05 11:09:33;;;;;;;10.65;1.65;;;;;;;19.49;100.00;99719.94;5007710;28;20039;-75
2024/04/05 11:12:00;;;;;;;10.80;2.05;;;;;;;19.47;100.00;99714.69;5041366;28;20037;-74
2024/04/05 11:14:25;;;;;;;12.07;2.28;;;;;;;19.46;100.00;99715.06;5024370;28;20036;-75
2024/04/05 11:16:57;;;;;;;10.82;1.80;;;;;;;19.46;100.00;99710.25;5040587;28;20033;-74
2024/04/05 11:19:26;;;;;;;12.07;2.00;;;;;;;19.46;100.00;99709.44;5030560;28;20053;-74